KPUC/PUC METAR and TAF weather

Enter ICAO airport designator
Station Type Date Time Source
KPUC METAR 2021/05/15 01:53 UTC NOAA

KPUC 150153Z AUTO 19007KT 10SM CLR 24/M06 A2991 RMK AO2 SLP056 T02441056


Station Type Date Time Source
KPUC Decoded METAR 2021/05/15 01:53 UTC NOAA

PRICE CARBON COUNTY AIRPORT, UT, United States (KPUC) 39-37N 110-45W 2091M
May 14, 2021 - 09:53 PM EDT / 2021.05.15 0153 UTC
Wind: from the S (190 degrees) at 8 MPH (7 KT):0
Visibility: 10 mile(s):0
Sky conditions: clear
Temperature: 75.9 F (24.4 C)
Dew Point: 21.9 F (-5.6 C)
Relative Humidity: 13%
Pressure (altimeter): 29.91 in. Hg (1012 hPa)
ob: KPUC 150153Z AUTO 19007KT 10SM CLR 24/M06 A2991 RMK AO2 SLP056 T02441056
cycle: 2

Station Type Date Time Source
KPUC TAF UTC NOAA

Error!

Example: see airport list